sensor_id;sensor_type;location;lat;lon;timestamp;temperature;humidity
3816;DHT22;1923;48.154;11.536;2022-10-30T00:00:40;15.60;99.90
3816;DHT22;1923;48.154;11.536;2022-10-30T00:03:10;15.60;99.90
3816;DHT22;1923;48.154;11.536;2022-10-30T00:05:40;15.50;99.90
3816;DHT22;1923;48.154;11.536;2022-10-30T00:08:10;15.50;99.90
3816;DHT22;1923;48.154;11.536;2022-10-30T00:10:39;15.50;99.90
3816;DHT22;1923;48.154;11.536;2022-10-30T00:13:09;15.50;99.90
3816;DHT22;1923;48.154;11.536;2022-10-30T00:15:37;15.50;99.90
3816;DHT22;1923;48.154;11.536;2022-10-30T00:18:05;15.40;99.90
3816;DHT22;1923;48.154;11.536;2022-10-30T00:20:35;15.40;99.90
3816;DHT22;1923;48.154;11.536;2022-10-30T00:23:03;15.40;99.90
3816;DHT22;1923;48.154;11.536;2022-10-30T00:25:33;15.40;99.90
3816;DHT22;1923;48.154;11.536;2022-10-30T00:28:01;15.40;99.90
3816;DHT22;1923;48.154;11.536;2022-10-30T00:30:31;15.40;99.90
3816;DHT22;1923;48.154;11.536;2022-10-30T00:32:59;15.30;99.90
3816;DHT22;1923;48.154;11.536;2022-10-30T00:35:27;15.40;99.90
3816;DHT22;1923;48.154;11.536;2022-10-30T00:37:55;15.30;99.90
3816;DHT22;1923;48.154;11.536;2022-10-30T00:40:24;15.20;99.90
3816;DHT22;1923;48.154;11.536;2022-10-30T00:42:52;15.40;99.90
3816;DHT22;1923;48.154;11.536;2022-10-30T00:45:20;15.30;99.90
3816;DHT22;1923;48.154;11.536;2022-10-30T00:47:52;15.20;99.90
3816;DHT22;1923;48.154;11.536;2022-10-30T00:50:24;15.20;99.90
3816;DHT22;1923;48.154;11.536;2022-10-30T00:53:01;15.20;99.90
3816;DHT22;1923;48.154;11.536;2022-10-30T00:55:32;15.20;99.90
3816;DHT22;1923;48.154;11.536;2022-10-30T00:58:05;15.10;99.90
3816;DHT22;1923;48.154;11.536;2022-10-30T01:00:36;15.00;99.90
3816;DHT22;1923;48.154;11.536;2022-10-30T01:03:08;15.10;99.90
3816;DHT22;1923;48.154;11.536;2022-10-30T01:05:36;15.00;99.90
3816;DHT22;1923;48.154;11.536;2022-10-30T01:08:05;14.90;99.90
3816;DHT22;1923;48.154;11.536;2022-10-30T01:10:33;14.90;99.90
3816;DHT22;1923;48.154;11.536;2022-10-30T01:13:01;14.90;99.90
3816;DHT22;1923;48.154;11.536;2022-10-30T01:15:32;15.10;99.90
3816;DHT22;1923;48.154;11.536;2022-10-30T01:18:14;15.00;99.90
3816;DHT22;1923;48.154;11.536;2022-10-30T01:20:57;14.90;99.90
3816;DHT22;1923;48.154;11.536;2022-10-30T01:23:35;14.90;99.90
3816;DHT22;1923;48.154;11.536;2022-10-30T01:26:13;14.90;99.90
3816;DHT22;1923;48.154;11.536;2022-10-30T01:28:59;14.80;99.90
3816;DHT22;1923;48.154;11.536;2022-10-30T01:31:41;14.80;99.90
3816;DHT22;1923;48.154;11.536;2022-10-30T01:34:17;14.80;99.90
3816;DHT22;1923;48.154;11.536;2022-10-30T01:36:51;14.80;99.90
3816;DHT22;1923;48.154;11.536;2022-10-30T01:39:25;14.70;99.90
3816;DHT22;1923;48.154;11.536;2022-10-30T01:41:53;14.70;99.90
3816;DHT22;1923;48.154;11.536;2022-10-30T01:44:25;14.70;99.90
3816;DHT22;1923;48.154;11.536;2022-10-30T01:47:07;14.70;99.90
3816;DHT22;1923;48.154;11.536;2022-10-30T01:49:57;14.70;99.90
3816;DHT22;1923;48.154;11.536;2022-10-30T10:40:41;29.70;78.90
3816;DHT22;1923;48.154;11.536;2022-10-30T10:43:22;29.80;76.90
3816;DHT22;1923;48.154;11.536;2022-10-30T10:46:18;30.60;76.30
3816;DHT22;1923;48.154;11.536;2022-10-30T10:48:59;31.20;73.90
3816;DHT22;1923;48.154;11.536;2022-10-30T10:51:30;31.10;72.60
3816;DHT22;1923;48.154;11.536;2022-10-30T10:54:00;31.50;72.40
3816;DHT22;1923;48.154;11.536;2022-10-30T10:56:39;32.00;70.20
3816;DHT22;1923;48.154;11.536;2022-10-30T10:59:13;32.60;68.80
3816;DHT22;1923;48.154;11.536;2022-10-30T11:01:48;33.30;69.00
3816;DHT22;1923;48.154;11.536;2022-10-30T11:04:26;33.50;68.80
3816;DHT22;1923;48.154;11.536;2022-10-30T11:06:57;33.10;68.40
3816;DHT22;1923;48.154;11.536;2022-10-30T11:09:30;32.20;70.10
3816;DHT22;1923;48.154;11.536;2022-10-30T11:12:00;31.20;72.80
3816;DHT22;1923;48.154;11.536;2022-10-30T11:14:28;30.30;74.90
3816;DHT22;1923;48.154;11.536;2022-10-30T11:17:03;29.60;76.50
3816;DHT22;1923;48.154;11.536;2022-10-30T11:19:32;29.00;78.50
3816;DHT22;1923;48.154;11.536;2022-10-30T11:22:01;28.30;80.00
3816;DHT22;1923;48.154;11.536;2022-10-30T11:24:34;27.50;81.10
3816;DHT22;1923;48.154;11.536;2022-10-30T11:27:22;27.10;83.10
3816;DHT22;1923;48.154;11.536;2022-10-30T11:29:56;26.80;83.90
3816;DHT22;1923;48.154;11.536;2022-10-30T11:32:28;26.50;84.60
3816;DHT22;1923;48.154;11.536;2022-10-30T11:35:11;26.30;84.80
3816;DHT22;1923;48.154;11.536;2022-10-30T11:37:42;26.10;85.00
3816;DHT22;1923;48.154;11.536;2022-10-30T11:40:18;25.80;85.60
3816;DHT22;1923;48.154;11.536;2022-10-30T11:42:57;25.60;86.20
3816;DHT22;1923;48.154;11.536;2022-10-30T11:45:29;25.40;85.80
3816;DHT22;1923;48.154;11.536;2022-10-30T11:48:00;25.40;87.20
3816;DHT22;1923;48.154;11.536;2022-10-30T11:50:32;25.30;86.30
3816;DHT22;1923;48.154;11.536;2022-10-30T11:53:10;25.30;86.40
3816;DHT22;1923;48.154;11.536;2022-10-30T11:55:44;25.10;87.10
3816;DHT22;1923;48.154;11.536;2022-10-30T11:58:23;25.10;88.40
3816;DHT22;1923;48.154;11.536;2022-10-30T12:01:04;25.10;89.10
3816;DHT22;1923;48.154;11.536;2022-10-30T12:03:35;25.10;89.30
3816;DHT22;1923;48.154;11.536;2022-10-30T12:06:09;24.90;89.50
3816;DHT22;1923;48.154;11.536;2022-10-30T12:08:37;24.90;89.30
3816;DHT22;1923;48.154;11.536;2022-10-30T12:11:06;24.80;89.20
3816;DHT22;1923;48.154;11.536;2022-10-30T12:13:39;24.80;90.00
3816;DHT22;1923;48.154;11.536;2022-10-30T12:16:13;24.80;89.90
3816;DHT22;1923;48.154;11.536;2022-10-30T12:18:57;24.70;89.10
3816;DHT22;1923;48.154;11.536;2022-10-30T12:21:48;24.60;90.10
3816;DHT22;1923;48.154;11.536;2022-10-30T12:24:27;24.50;90.40
3816;DHT22;1923;48.154;11.536;2022-10-30T12:27:01;24.50;90.70
3816;DHT22;1923;48.154;11.536;2022-10-30T12:29:38;24.40;90.50
3816;DHT22;1923;48.154;11.536;2022-10-30T12:32:37;24.30;90.60
3816;DHT22;1923;48.154;11.536;2022-10-30T12:37:53;24.30;90.80
3816;DHT22;1923;48.154;11.536;2022-10-30T12:40:27;24.30;91.20
3816;DHT22;1923;48.154;11.536;2022-10-30T12:43:01;24.30;90.90
3816;DHT22;1923;48.154;11.536;2022-10-30T12:45:37;24.20;90.70
3816;DHT22;1923;48.154;11.536;2022-10-30T12:48:13;24.00;90.60
3816;DHT22;1923;48.154;11.536;2022-10-30T12:50:49;24.10;90.90
3816;DHT22;1923;48.154;11.536;2022-10-30T12:53:26;24.10;90.70
3816;DHT22;1923;48.154;11.536;2022-10-30T12:56:04;24.10;90.60
3816;DHT22;1923;48.154;11.536;2022-10-30T12:58:38;24.00;90.70
3816;DHT22;1923;48.154;11.536;2022-10-30T13:01:18;24.00;90.60
3816;DHT22;1923;48.154;11.536;2022-10-30T13:03:56;23.90;90.80
3816;DHT22;1923;48.154;11.536;2022-10-30T13:06:40;23.90;91.10
3816;DHT22;1923;48.154;11.536;2022-10-30T13:09:15;23.90;90.60
3816;DHT22;1923;48.154;11.536;2022-10-30T13:11:50;23.90;90.70
3816;DHT22;1923;48.154;11.536;2022-10-30T13:14:33;23.80;90.70
3816;DHT22;1923;48.154;11.536;2022-10-30T13:17:10;23.70;91.00
3816;DHT22;1923;48.154;11.536;2022-10-30T13:19:40;23.70;91.20
3816;DHT22;1923;48.154;11.536;2022-10-30T13:22:15;23.70;91.00
3816;DHT22;1923;48.154;11.536;2022-10-30T13:24:49;23.70;91.20
3816;DHT22;1923;48.154;11.536;2022-10-30T13:27:33;23.70;91.20
3816;DHT22;1923;48.154;11.536;2022-10-30T13:30:33;23.70;91.30
3816;DHT22;1923;48.154;11.536;2022-10-30T13:33:14;23.70;91.40
3816;DHT22;1923;48.154;11.536;2022-10-30T13:35:53;23.70;91.30
3816;DHT22;1923;48.154;11.536;2022-10-30T13:38:39;23.60;91.60
3816;DHT22;1923;48.154;11.536;2022-10-30T13:41:18;23.60;91.90
3816;DHT22;1923;48.154;11.536;2022-10-30T13:43:55;23.60;92.20
3816;DHT22;1923;48.154;11.536;2022-10-30T13:46:53;23.70;92.40
3816;DHT22;1923;48.154;11.536;2022-10-30T13:49:41;23.70;92.50
3816;DHT22;1923;48.154;11.536;2022-10-30T13:52:15;23.70;92.70
3816;DHT22;1923;48.154;11.536;2022-10-30T13:54:47;23.70;92.80
3816;DHT22;1923;48.154;11.536;2022-10-30T13:57:28;23.60;92.90
3816;DHT22;1923;48.154;11.536;2022-10-30T14:00:04;23.70;93.10
3816;DHT22;1923;48.154;11.536;2022-10-30T14:02:44;23.70;94.20
3816;DHT22;1923;48.154;11.536;2022-10-30T14:05:27;23.60;94.70
3816;DHT22;1923;48.154;11.536;2022-10-30T14:08:04;23.70;95.20
3816;DHT22;1923;48.154;11.536;2022-10-30T14:10:45;23.60;95.30
3816;DHT22;1923;48.154;11.536;2022-10-30T14:13:21;23.60;95.80
3816;DHT22;1923;48.154;11.536;2022-10-30T14:15:59;23.50;95.70
3816;DHT22;1923;48.154;11.536;2022-10-30T14:18:42;23.50;95.90
3816;DHT22;1923;48.154;11.536;2022-10-30T14:21:51;23.30;96.00
3816;DHT22;1923;48.154;11.536;2022-10-30T14:24:22;23.30;96.20
3816;DHT22;1923;48.154;11.536;2022-10-30T14:26:54;23.40;96.40
3816;DHT22;1923;48.154;11.536;2022-10-30T14:29:48;23.30;96.60
3816;DHT22;1923;48.154;11.536;2022-10-30T14:32:41;23.30;96.70
3816;DHT22;1923;48.154;11.536;2022-10-30T14:35:35;23.20;96.80
3816;DHT22;1923;48.154;11.536;2022-10-30T14:38:25;23.00;97.20
3816;DHT22;1923;48.154;11.536;2022-10-30T14:44:35;23.10;97.50
3816;DHT22;1923;48.154;11.536;2022-10-30T14:47:39;23.00;97.60
3816;DHT22;1923;48.154;11.536;2022-10-30T14:50:20;22.90;97.80
3816;DHT22;1923;48.154;11.536;2022-10-30T14:53:03;22.70;97.90
3816;DHT22;1923;48.154;11.536;2022-10-30T14:55:49;22.60;98.30
3816;DHT22;1923;48.154;11.536;2022-10-30T14:58:23;22.60;98.50
3816;DHT22;1923;48.154;11.536;2022-10-30T15:01:19;22.50;98.80
3816;DHT22;1923;48.154;11.536;2022-10-30T15:06:54;22.40;99.30
3816;DHT22;1923;48.154;11.536;2022-10-30T15:09:38;22.30;99.60
3816;DHT22;1923;48.154;11.536;2022-10-30T15:12:26;22.30;99.90
3816;DHT22;1923;48.154;11.536;2022-10-30T15:15:05;22.10;99.90
3816;DHT22;1923;48.154;11.536;2022-10-30T15:17:39;22.10;99.90
3816;DHT22;1923;48.154;11.536;2022-10-30T15:20:14;22.00;99.90
3816;DHT22;1923;48.154;11.536;2022-10-30T15:22:44;21.90;99.90
3816;DHT22;1923;48.154;11.536;2022-10-30T15:25:17;21.90;99.90
3816;DHT22;1923;48.154;11.536;2022-10-30T15:27:50;21.80;99.90
3816;DHT22;1923;48.154;11.536;2022-10-30T15:30:20;21.70;99.90
3816;DHT22;1923;48.154;11.536;2022-10-30T15:32:49;21.70;99.90
3816;DHT22;1923;48.154;11.536;2022-10-30T15:35:19;21.50;99.90
3816;DHT22;1923;48.154;11.536;2022-10-30T15:38:04;21.50;99.90
3816;DHT22;1923;48.154;11.536;2022-10-30T15:40:33;21.50;99.90
3816;DHT22;1923;48.154;11.536;2022-10-30T15:43:05;21.50;99.90
3816;DHT22;1923;48.154;11.536;2022-10-30T15:45:36;21.60;99.90
3816;DHT22;1923;48.154;11.536;2022-10-30T15:48:10;21.40;99.90
3816;DHT22;1923;48.154;11.536;2022-10-30T15:50:52;21.40;99.90
3816;DHT22;1923;48.154;11.536;2022-10-30T15:53:27;21.30;99.90
3816;DHT22;1923;48.154;11.536;2022-10-30T15:56:00;21.30;99.90
3816;DHT22;1923;48.154;11.536;2022-10-30T15:58:34;21.20;99.90
3816;DHT22;1923;48.154;11.536;2022-10-30T16:01:03;21.10;99.90
3816;DHT22;1923;48.154;11.536;2022-10-30T16:03:31;21.00;99.90
3816;DHT22;1923;48.154;11.536;2022-10-30T16:06:04;21.10;99.90
3816;DHT22;1923;48.154;11.536;2022-10-30T16:08:42;21.00;99.90
3816;DHT22;1923;48.154;11.536;2022-10-30T16:11:11;20.90;99.90
3816;DHT22;1923;48.154;11.536;2022-10-30T16:13:42;20.90;99.90
3816;DHT22;1923;48.154;11.536;2022-10-30T16:16:18;20.80;99.90
3816;DHT22;1923;48.154;11.536;2022-10-30T16:18:47;20.80;99.90
3816;DHT22;1923;48.154;11.536;2022-10-30T16:21:21;20.70;99.90
3816;DHT22;1923;48.154;11.536;2022-10-30T16:23:52;20.70;99.90
3816;DHT22;1923;48.154;11.536;2022-10-30T16:26:27;20.60;99.90
3816;DHT22;1923;48.154;11.536;2022-10-30T16:29:06;20.50;99.90
3816;DHT22;1923;48.154;11.536;2022-10-30T16:31:36;20.40;99.90
3816;DHT22;1923;48.154;11.536;2022-10-30T16:34:10;20.40;99.90
3816;DHT22;1923;48.154;11.536;2022-10-30T16:36:41;20.40;99.90
3816;DHT22;1923;48.154;11.536;2022-10-30T16:39:13;20.30;99.90
3816;DHT22;1923;48.154;11.536;2022-10-30T16:41:42;20.20;99.90
3816;DHT22;1923;48.154;11.536;2022-10-30T16:44:18;20.20;99.90
3816;DHT22;1923;48.154;11.536;2022-10-30T16:46:49;20.20;99.90
3816;DHT22;1923;48.154;11.536;2022-10-30T16:49:21;20.20;99.90
3816;DHT22;1923;48.154;11.536;2022-10-30T16:51:57;20.00;99.90
3816;DHT22;1923;48.154;11.536;2022-10-30T16:54:29;20.00;99.90
3816;DHT22;1923;48.154;11.536;2022-10-30T16:57:00;19.90;99.90
3816;DHT22;1923;48.154;11.536;2022-10-30T16:59:34;19.80;99.90
3816;DHT22;1923;48.154;11.536;2022-10-30T17:02:11;19.80;99.90
3816;DHT22;1923;48.154;11.536;2022-10-30T17:04:45;19.80;99.90
3816;DHT22;1923;48.154;11.536;2022-10-30T17:07:18;19.70;99.90
3816;DHT22;1923;48.154;11.536;2022-10-30T17:09:48;19.60;99.90
3816;DHT22;1923;48.154;11.536;2022-10-30T17:12:20;19.60;99.90
3816;DHT22;1923;48.154;11.536;2022-10-30T17:15:01;19.60;99.90
3816;DHT22;1923;48.154;11.536;2022-10-30T17:17:35;19.50;99.90
3816;DHT22;1923;48.154;11.536;2022-10-30T17:20:24;19.50;99.90
3816;DHT22;1923;48.154;11.536;2022-10-30T17:23:05;19.40;99.90
3816;DHT22;1923;48.154;11.536;2022-10-30T17:25:35;19.30;99.90
3816;DHT22;1923;48.154;11.536;2022-10-30T17:28:04;19.30;99.90
3816;DHT22;1923;48.154;11.536;2022-10-30T17:30:37;19.20;99.90
3816;DHT22;1923;48.154;11.536;2022-10-30T17:33:38;19.10;99.90
3816;DHT22;1923;48.154;11.536;2022-10-30T17:36:08;19.00;99.90
3816;DHT22;1923;48.154;11.536;2022-10-30T17:38:36;19.10;99.90
3816;DHT22;1923;48.154;11.536;2022-10-30T17:41:05;18.90;99.90
3816;DHT22;1923;48.154;11.536;2022-10-30T17:43:47;18.90;99.90
3816;DHT22;1923;48.154;11.536;2022-10-30T17:46:17;18.90;99.90
3816;DHT22;1923;48.154;11.536;2022-10-30T17:48:46;18.80;99.90
3816;DHT22;1923;48.154;11.536;2022-10-30T17:51:16;18.80;99.90
3816;DHT22;1923;48.154;11.536;2022-10-30T17:53:46;18.80;99.90
3816;DHT22;1923;48.154;11.536;2022-10-30T17:56:18;18.70;99.90
3816;DHT22;1923;48.154;11.536;2022-10-30T17:58:48;18.60;99.90
3816;DHT22;1923;48.154;11.536;2022-10-30T18:01:19;18.50;99.90
3816;DHT22;1923;48.154;11.536;2022-10-30T18:03:52;18.40;99.90
3816;DHT22;1923;48.154;11.536;2022-10-30T18:06:22;18.40;99.90
3816;DHT22;1923;48.154;11.536;2022-10-30T18:08:52;18.30;99.90
3816;DHT22;1923;48.154;11.536;2022-10-30T18:11:23;18.30;99.90
3816;DHT22;1923;48.154;11.536;2022-10-30T18:13:55;18.20;99.90
3816;DHT22;1923;48.154;11.536;2022-10-30T18:16:25;18.10;99.90
3816;DHT22;1923;48.154;11.536;2022-10-30T18:18:53;18.20;99.90
3816;DHT22;1923;48.154;11.536;2022-10-30T18:21:24;18.10;99.90
3816;DHT22;1923;48.154;11.536;2022-10-30T18:23:53;18.00;99.90
3816;DHT22;1923;48.154;11.536;2022-10-30T18:26:23;18.00;99.90
3816;DHT22;1923;48.154;11.536;2022-10-30T18:28:54;18.10;99.90
3816;DHT22;1923;48.154;11.536;2022-10-30T18:31:22;17.90;99.90
3816;DHT22;1923;48.154;11.536;2022-10-30T18:33:52;17.90;99.90
3816;DHT22;1923;48.154;11.536;2022-10-30T18:36:23;17.90;99.90
3816;DHT22;1923;48.154;11.536;2022-10-30T18:38:52;17.80;99.90
3816;DHT22;1923;48.154;11.536;2022-10-30T18:41:23;17.70;99.90
3816;DHT22;1923;48.154;11.536;2022-10-30T18:43:56;17.60;99.90
3816;DHT22;1923;48.154;11.536;2022-10-30T18:46:24;17.60;99.90
3816;DHT22;1923;48.154;11.536;2022-10-30T18:48:54;17.60;99.90
3816;DHT22;1923;48.154;11.536;2022-10-30T18:51:24;17.60;99.90
3816;DHT22;1923;48.154;11.536;2022-10-30T18:53:53;17.40;99.90
3816;DHT22;1923;48.154;11.536;2022-10-30T18:56:24;17.50;99.90
3816;DHT22;1923;48.154;11.536;2022-10-30T18:58:53;17.50;99.90
3816;DHT22;1923;48.154;11.536;2022-10-30T19:01:28;17.50;99.90
3816;DHT22;1923;48.154;11.536;2022-10-30T19:03:59;17.40;99.90
3816;DHT22;1923;48.154;11.536;2022-10-30T19:06:29;17.40;99.90
3816;DHT22;1923;48.154;11.536;2022-10-30T19:09:00;17.40;99.90
3816;DHT22;1923;48.154;11.536;2022-10-30T19:11:28;17.30;99.90
3816;DHT22;1923;48.154;11.536;2022-10-30T19:13:58;17.30;99.90
3816;DHT22;1923;48.154;11.536;2022-10-30T19:16:35;17.20;99.90
3816;DHT22;1923;48.154;11.536;2022-10-30T19:19:07;17.20;99.90
3816;DHT22;1923;48.154;11.536;2022-10-30T19:21:36;17.20;99.90
3816;DHT22;1923;48.154;11.536;2022-10-30T19:24:16;17.00;99.90
3816;DHT22;1923;48.154;11.536;2022-10-30T19:26:58;17.10;99.90
3816;DHT22;1923;48.154;11.536;2022-10-30T19:29:28;17.00;99.90
3816;DHT22;1923;48.154;11.536;2022-10-30T19:31:58;17.00;99.90
3816;DHT22;1923;48.154;11.536;2022-10-30T19:34:43;17.00;99.90
3816;DHT22;1923;48.154;11.536;2022-10-30T19:37:11;17.00;99.90
3816;DHT22;1923;48.154;11.536;2022-10-30T19:39:43;17.00;99.90
3816;DHT22;1923;48.154;11.536;2022-10-30T19:42:14;16.90;99.90
3816;DHT22;1923;48.154;11.536;2022-10-30T19:44:43;16.90;99.90
3816;DHT22;1923;48.154;11.536;2022-10-30T19:51:08;16.80;99.90
3816;DHT22;1923;48.154;11.536;2022-10-30T20:20:29;16.40;99.90
3816;DHT22;1923;48.154;11.536;2022-10-30T20:22:58;16.20;99.90
3816;DHT22;1923;48.154;11.536;2022-10-30T20:25:28;16.20;99.90
3816;DHT22;1923;48.154;11.536;2022-10-30T20:27:59;16.30;99.90
3816;DHT22;1923;48.154;11.536;2022-10-30T20:30:32;16.20;99.90
3816;DHT22;1923;48.154;11.536;2022-10-30T20:33:01;16.20;99.90
3816;DHT22;1923;48.154;11.536;2022-10-30T20:35:30;16.20;99.90
3816;DHT22;1923;48.154;11.536;2022-10-30T20:38:00;16.20;99.90
3816;DHT22;1923;48.154;11.536;2022-10-30T20:40:30;16.20;99.90
3816;DHT22;1923;48.154;11.536;2022-10-30T20:43:01;16.30;99.90
3816;DHT22;1923;48.154;11.536;2022-10-30T20:45:29;16.20;99.90
3816;DHT22;1923;48.154;11.536;2022-10-30T20:47:57;16.10;99.90
3816;DHT22;1923;48.154;11.536;2022-10-30T20:50:26;16.00;99.90
3816;DHT22;1923;48.154;11.536;2022-10-30T20:52:56;16.10;99.90
3816;DHT22;1923;48.154;11.536;2022-10-30T20:55:24;16.00;99.90
3816;DHT22;1923;48.154;11.536;2022-10-30T20:57:52;16.10;99.90
3816;DHT22;1923;48.154;11.536;2022-10-30T21:00:20;16.10;99.90
3816;DHT22;1923;48.154;11.536;2022-10-30T21:02:49;16.00;99.90
3816;DHT22;1923;48.154;11.536;2022-10-30T21:05:17;15.90;99.90
3816;DHT22;1923;48.154;11.536;2022-10-30T21:08:07;15.80;99.90
3816;DHT22;1923;48.154;11.536;2022-10-30T21:10:36;15.80;99.90
3816;DHT22;1923;48.154;11.536;2022-10-30T21:13:04;15.80;99.90
3816;DHT22;1923;48.154;11.536;2022-10-30T21:15:36;15.70;99.90
3816;DHT22;1923;48.154;11.536;2022-10-30T21:18:05;15.70;99.90
3816;DHT22;1923;48.154;11.536;2022-10-30T21:20:34;15.80;99.90
3816;DHT22;1923;48.154;11.536;2022-10-30T21:23:03;15.80;99.90
3816;DHT22;1923;48.154;11.536;2022-10-30T21:25:33;15.70;99.90
3816;DHT22;1923;48.154;11.536;2022-10-30T21:28:02;15.60;99.90
3816;DHT22;1923;48.154;11.536;2022-10-30T21:30:30;15.60;99.90
3816;DHT22;1923;48.154;11.536;2022-10-30T21:32:58;15.60;99.90
3816;DHT22;1923;48.154;11.536;2022-10-30T21:35:27;15.60;99.90
3816;DHT22;1923;48.154;11.536;2022-10-30T21:37:55;15.50;99.90
3816;DHT22;1923;48.154;11.536;2022-10-30T21:40:23;15.40;99.90
3816;DHT22;1923;48.154;11.536;2022-10-30T21:42:52;15.40;99.90
3816;DHT22;1923;48.154;11.536;2022-10-30T21:45:27;15.40;99.90
3816;DHT22;1923;48.154;11.536;2022-10-30T21:47:55;15.40;99.90
3816;DHT22;1923;48.154;11.536;2022-10-30T21:50:23;15.40;99.90
3816;DHT22;1923;48.154;11.536;2022-10-30T21:52:51;15.40;99.90
3816;DHT22;1923;48.154;11.536;2022-10-30T21:55:20;15.40;99.90
3816;DHT22;1923;48.154;11.536;2022-10-30T21:57:50;15.30;99.90
3816;DHT22;1923;48.154;11.536;2022-10-30T22:00:19;15.50;99.90
3816;DHT22;1923;48.154;11.536;2022-10-30T22:02:47;15.50;99.90
3816;DHT22;1923;48.154;11.536;2022-10-30T22:05:15;15.40;99.90
3816;DHT22;1923;48.154;11.536;2022-10-30T22:11:04;15.40;99.90
3816;DHT22;1923;48.154;11.536;2022-10-30T22:13:33;15.40;99.90
3816;DHT22;1923;48.154;11.536;2022-10-30T22:16:04;15.30;99.90
3816;DHT22;1923;48.154;11.536;2022-10-30T22:18:33;15.30;99.90
3816;DHT22;1923;48.154;11.536;2022-10-30T22:21:04;15.40;99.90
3816;DHT22;1923;48.154;11.536;2022-10-30T22:23:33;15.40;99.90
3816;DHT22;1923;48.154;11.536;2022-10-30T22:26:03;15.30;99.90
3816;DHT22;1923;48.154;11.536;2022-10-30T22:28:33;15.10;99.90
3816;DHT22;1923;48.154;11.536;2022-10-30T22:31:03;15.10;99.90
3816;DHT22;1923;48.154;11.536;2022-10-30T22:33:32;15.00;99.90
3816;DHT22;1923;48.154;11.536;2022-10-30T22:36:02;15.00;99.90
3816;DHT22;1923;48.154;11.536;2022-10-30T22:38:31;14.90;99.90
3816;DHT22;1923;48.154;11.536;2022-10-30T22:41:08;14.90;99.90
3816;DHT22;1923;48.154;11.536;2022-10-30T22:43:36;14.80;99.90
3816;DHT22;1923;48.154;11.536;2022-10-30T22:46:06;14.80;99.90
3816;DHT22;1923;48.154;11.536;2022-10-30T22:48:34;14.70;99.90
3816;DHT22;1923;48.154;11.536;2022-10-30T22:51:04;14.80;99.90
3816;DHT22;1923;48.154;11.536;2022-10-30T22:53:41;14.70;99.90
3816;DHT22;1923;48.154;11.536;2022-10-30T22:56:15;14.70;99.90
3816;DHT22;1923;48.154;11.536;2022-10-30T22:58:44;14.60;99.90
3816;DHT22;1923;48.154;11.536;2022-10-30T23:01:16;14.70;99.90
3816;DHT22;1923;48.154;11.536;2022-10-30T23:03:45;14.70;99.90
3816;DHT22;1923;48.154;11.536;2022-10-30T23:06:13;14.70;99.90
3816;DHT22;1923;48.154;11.536;2022-10-30T23:08:42;14.60;99.90
3816;DHT22;1923;48.154;11.536;2022-10-30T23:11:10;14.60;99.90
3816;DHT22;1923;48.154;11.536;2022-10-30T23:13:39;14.60;99.90
3816;DHT22;1923;48.154;11.536;2022-10-30T23:16:10;14.50;99.90
3816;DHT22;1923;48.154;11.536;2022-10-30T23:18:44;14.60;99.90
3816;DHT22;1923;48.154;11.536;2022-10-30T23:21:16;14.60;99.90
3816;DHT22;1923;48.154;11.536;2022-10-30T23:23:45;14.50;99.90
3816;DHT22;1923;48.154;11.536;2022-10-30T23:26:16;14.50;99.90
3816;DHT22;1923;48.154;11.536;2022-10-30T23:31:42;14.50;99.90
3816;DHT22;1923;48.154;11.536;2022-10-30T23:34:13;14.40;99.90
3816;DHT22;1923;48.154;11.536;2022-10-30T23:36:42;14.40;99.90
3816;DHT22;1923;48.154;11.536;2022-10-30T23:39:12;14.40;99.90
3816;DHT22;1923;48.154;11.536;2022-10-30T23:41:41;14.30;99.90
3816;DHT22;1923;48.154;11.536;2022-10-30T23:44:11;14.30;99.90
3816;DHT22;1923;48.154;11.536;2022-10-30T23:46:40;14.30;99.90
3816;DHT22;1923;48.154;11.536;2022-10-30T23:49:08;14.30;99.90
3816;DHT22;1923;48.154;11.536;2022-10-30T23:51:37;14.30;99.90
3816;DHT22;1923;48.154;11.536;2022-10-30T23:54:05;14.30;99.90
3816;DHT22;1923;48.154;11.536;2022-10-30T23:56:33;14.20;99.90
3816;DHT22;1923;48.154;11.536;2022-10-30T23:59:02;14.30;99.90
